St.peterburg Pilot — UAMI — position and weather

sailwx.info

Track history (hours):
 
Tides and Currents Weather Stations Pressure Air Temp Water Temp Dewpoint Dewpoint Depression Visibility Wind Speed Wind Dir Waves Ship Positions

St.peterburg Pilot

Last reported at 2016-Aug-28 04:25 UTC. Time now 2016-Aug-28 05:09 UTC.
Position N 59°59' E 029°42'.

Length 59 m; draft 3.8 m.

Type: Pilot. MMSI: 273436530.

Date/timePositionNaut miles runAvg speedWind from/ knotsBaromVisibWave heightAir tempDewpointWater temp
2016-Aug-28 04:25N 59°59' E 029°42'0 0.0
2016-Aug-28 03:18N 59°59' E 029°42'0 0.0
2016-Aug-28 01:28N 59°59' E 029°42'0 0.0
2016-Aug-28 00:30N 59°59' E 029°42'0 0.0
2016-Aug-27 23:29N 59°59' E 029°42'0 0.0
2016-Aug-27 22:31N 59°59' E 029°42'0 0.0
2016-Aug-27 21:28N 59°59' E 029°42'0 0.0
2016-Aug-27 19:20N 59°59' E 029°42'0 0.0
2016-Aug-27 18:33N 59°59' E 029°42'0 0.0
2016-Aug-27 17:12N 59°59' E 029°42'0 0.0
2016-Aug-27 16:06N 59°59' E 029°42'0 0.0
2016-Aug-27 13:10N 59°59' E 029°42'0 0.0
2016-Aug-27 11:29N 59°59' E 029°42'0 0.0
2016-Aug-27 10:31N 59°59' E 029°42'0 0.0
2016-Aug-27 04:14N 59°59' E 029°42'0 0.0
2016-Aug-27 03:33N 59°59' E 029°42'0 0.0
2016-Aug-27 02:30N 59°59' E 029°42'0 0.0
2016-Aug-27 01:19N 59°59' E 029°42'2 0.2
2016-Aug-26 17:32N 59°60' E 029°40'2 1.6
2016-Aug-26 16:33N 59°59' E 029°42'0 0.0
2016-Aug-26 15:20N 59°59' E 029°42'0 0.0
2016-Aug-26 14:30N 59°59' E 029°42'0 0.0
2016-Aug-26 13:27N 59°59' E 029°42'0 0.0
2016-Aug-26 12:32N 59°59' E 029°42'0 0.0
2016-Aug-26 11:26N 59°59' E 029°42'0 0.0
2016-Aug-26 10:31N 59°59' E 029°42'0 0.0
2016-Aug-26 09:27N 59°59' E 029°42'0 0.0
2016-Aug-26 03:28N 59°59' E 029°42'  
2016-Aug-19 17:30N 59°59' E 029°43'1010.2
2016-Aug-19 16:33N 59°55' E 030°01'7 6.6
2016-Aug-19 15:33N 59°55' E 030°14'1 0.9
2016-Aug-19 14:32N 59°54' E 030°13'0 0.0
2016-Aug-19 13:30N 59°54' E 030°13'0 0.0
2016-Aug-19 12:33N 59°54' E 030°13'0 0.0
2016-Aug-19 11:30N 59°54' E 030°13'0 0.0
2016-Aug-19 10:32N 59°54' E 030°13'0 0.0
2016-Aug-19 09:30N 59°54' E 030°13'0 0.0
2016-Aug-19 08:32N 59°54' E 030°13'0 0.0
2016-Aug-19 07:31N 59°54' E 030°13'0 0.0
2016-Aug-19 06:33N 59°54' E 030°13'0 0.0
2016-Aug-19 00:33N 59°54' E 030°13'0 0.0
2016-Aug-18 23:31N 59°54' E 030°13'0 0.0
2016-Aug-18 22:32N 59°54' E 030°13'0 0.0
2016-Aug-18 21:30N 59°54' E 030°13'0 0.0
2016-Aug-18 20:33N 59°54' E 030°13'0 0.0
2016-Aug-18 19:30N 59°54' E 030°13'0 0.0
2016-Aug-18 18:33N 59°54' E 030°13'0 0.0
2016-Aug-18 17:29N 59°54' E 030°13'0 0.0
2016-Aug-18 16:33N 59°54' E 030°13'0 0.0
2016-Aug-18 15:30N 59°54' E 030°13'0 0.0
2016-Aug-18 14:32N 59°54' E 030°13'0 0.0
2016-Aug-18 13:30N 59°54' E 030°13'0 0.0
2016-Aug-18 12:32N 59°54' E 030°13'0 0.0
2016-Aug-18 11:30N 59°54' E 030°13'0 0.0
2016-Aug-18 10:32N 59°54' E 030°13'0 0.0
2016-Aug-18 09:29N 59°54' E 030°13'0 0.0
2016-Aug-18 08:26N 59°54' E 030°13'0 0.0
2016-Aug-18 07:29N 59°54' E 030°13'0 0.0
2016-Aug-18 06:33N 59°54' E 030°13'  
Track history (hours):
 
Tides and Currents Weather Stations Pressure Air Temp Water Temp Dewpoint Dewpoint Depression Visibility Wind Speed Wind Dir Waves Ship Positions

St.peterburg Pilot

Last reported at 2016-Aug-28 04:25 UTC. Time now 2016-Aug-28 05:09 UTC.
Position N 59°59' E 029°42'.

Length 59 m; draft 3.8 m.

Type: Pilot. MMSI: 273436530.

Date/timePositionNaut miles runAvg speedWind from/ knotsBaromVisibWave heightAir tempDewpointWater temp
2016-Aug-28 04:25N 59°59' E 029°42'0 0.0
2016-Aug-28 03:18N 59°59' E 029°42'0 0.0
2016-Aug-28 01:28N 59°59' E 029°42'0 0.0
2016-Aug-28 00:30N 59°59' E 029°42'0 0.0
2016-Aug-27 23:29N 59°59' E 029°42'0 0.0
2016-Aug-27 22:31N 59°59' E 029°42'0 0.0
2016-Aug-27 21:28N 59°59' E 029°42'0 0.0
2016-Aug-27 19:20N 59°59' E 029°42'0 0.0
2016-Aug-27 18:33N 59°59' E 029°42'0 0.0
2016-Aug-27 17:12N 59°59' E 029°42'0 0.0
2016-Aug-27 16:06N 59°59' E 029°42'0 0.0
2016-Aug-27 13:10N 59°59' E 029°42'0 0.0
2016-Aug-27 11:29N 59°59' E 029°42'0 0.0
2016-Aug-27 10:31N 59°59' E 029°42'0 0.0
2016-Aug-27 04:14N 59°59' E 029°42'0 0.0
2016-Aug-27 03:33N 59°59' E 029°42'0 0.0
2016-Aug-27 02:30N 59°59' E 029°42'0 0.0
2016-Aug-27 01:19N 59°59' E 029°42'2 0.2
2016-Aug-26 17:32N 59°60' E 029°40'2 1.6
2016-Aug-26 16:33N 59°59' E 029°42'0 0.0
2016-Aug-26 15:20N 59°59' E 029°42'0 0.0
2016-Aug-26 14:30N 59°59' E 029°42'0 0.0
2016-Aug-26 13:27N 59°59' E 029°42'0 0.0
2016-Aug-26 12:32N 59°59' E 029°42'0 0.0
2016-Aug-26 11:26N 59°59' E 029°42'0 0.0
2016-Aug-26 10:31N 59°59' E 029°42'0 0.0
2016-Aug-26 09:27N 59°59' E 029°42'0 0.0
2016-Aug-26 03:28N 59°59' E 029°42'  
2016-Aug-19 17:30N 59°59' E 029°43'1010.2
2016-Aug-19 16:33N 59°55' E 030°01'7 6.6
2016-Aug-19 15:33N 59°55' E 030°14'1 0.9
2016-Aug-19 14:32N 59°54' E 030°13'0 0.0
2016-Aug-19 13:30N 59°54' E 030°13'0 0.0
2016-Aug-19 12:33N 59°54' E 030°13'0 0.0
2016-Aug-19 11:30N 59°54' E 030°13'0 0.0
2016-Aug-19 10:32N 59°54' E 030°13'0 0.0
2016-Aug-19 09:30N 59°54' E 030°13'0 0.0
2016-Aug-19 08:32N 59°54' E 030°13'0 0.0
2016-Aug-19 07:31N 59°54' E 030°13'0 0.0
2016-Aug-19 06:33N 59°54' E 030°13'0 0.0
2016-Aug-19 00:33N 59°54' E 030°13'0 0.0
2016-Aug-18 23:31N 59°54' E 030°13'0 0.0
2016-Aug-18 22:32N 59°54' E 030°13'0 0.0
2016-Aug-18 21:30N 59°54' E 030°13'0 0.0
2016-Aug-18 20:33N 59°54' E 030°13'0 0.0
2016-Aug-18 19:30N 59°54' E 030°13'0 0.0
2016-Aug-18 18:33N 59°54' E 030°13'0 0.0
2016-Aug-18 17:29N 59°54' E 030°13'0 0.0
2016-Aug-18 16:33N 59°54' E 030°13'0 0.0
2016-Aug-18 15:30N 59°54' E 030°13'0 0.0
2016-Aug-18 14:32N 59°54' E 030°13'0 0.0
2016-Aug-18 13:30N 59°54' E 030°13'0 0.0
2016-Aug-18 12:32N 59°54' E 030°13'0 0.0
2016-Aug-18 11:30N 59°54' E 030°13'0 0.0
2016-Aug-18 10:32N 59°54' E 030°13'0 0.0
2016-Aug-18 09:29N 59°54' E 030°13'0 0.0
2016-Aug-18 08:26N 59°54' E 030°13'0 0.0
2016-Aug-18 07:29N 59°54' E 030°13'0 0.0
2016-Aug-18 06:33N 59°54' E 030°13'  

Dump ship's entire track history